createdAt,value
2023-02-11T00:01:18.326Z,0.40
2023-02-11T00:03:45.018Z,0.40
2023-02-11T00:06:12.003Z,0.40
2023-02-11T00:08:39.793Z,0.40
2023-02-11T00:11:07.528Z,0.50
2023-02-11T00:13:34.311Z,0.50
2023-02-11T00:16:17.324Z,0.50
2023-02-11T00:18:44.032Z,0.50
2023-02-11T00:21:13.950Z,0.60
2023-02-11T00:23:40.906Z,0.60
2023-02-11T00:26:21.746Z,0.60
2023-02-11T00:28:50.360Z,0.60
2023-02-11T00:31:19.434Z,0.60
2023-02-11T00:33:46.771Z,0.60
2023-02-11T00:36:22.122Z,0.60
2023-02-11T00:38:50.973Z,0.60
2023-02-11T00:41:18.699Z,0.60
2023-02-11T00:43:45.920Z,0.70
2023-02-11T00:46:13.213Z,0.60
2023-02-11T00:48:40.484Z,0.60
2023-02-11T00:51:07.508Z,0.60
2023-02-11T00:53:35.144Z,0.60
2023-02-11T00:56:02.338Z,0.70
2023-02-11T00:58:29.277Z,0.70
2023-02-11T01:00:56.060Z,0.70
2023-02-11T01:03:23.462Z,0.70
2023-02-11T01:05:50.476Z,0.70
2023-02-11T01:08:17.585Z,0.70
2023-02-11T01:10:44.182Z,0.80
2023-02-11T01:13:11.052Z,0.70
2023-02-11T01:15:37.798Z,0.70
2023-02-11T01:18:05.634Z,0.70
2023-02-11T01:20:32.418Z,0.70
2023-02-11T01:22:58.986Z,0.70
2023-02-11T01:25:28.560Z,0.70
2023-02-11T01:27:55.202Z,0.70
2023-02-11T01:30:21.875Z,0.70
2023-02-11T01:32:48.478Z,0.80
2023-02-11T01:35:15.121Z,0.80
2023-02-11T01:37:42.037Z,0.80
2023-02-11T01:40:17.144Z,0.70
2023-02-11T01:42:43.848Z,0.70
2023-02-11T01:46:00.460Z,0.70
2023-02-11T01:48:47.996Z,0.70
2023-02-11T01:51:22.272Z,0.70
2023-02-11T01:54:09.480Z,0.70
2023-02-11T01:57:01.626Z,0.80
2023-02-11T01:59:37.676Z,0.70
2023-02-11T02:02:10.808Z,0.70
2023-02-11T02:04:49.313Z,0.70
2023-02-11T02:07:28.274Z,0.70
2023-02-11T02:10:03.879Z,0.80
2023-02-11T02:12:30.679Z,0.80
2023-02-11T02:15:18.499Z,0.80
2023-02-11T02:18:12.963Z,0.80
2023-02-11T02:21:44.448Z,0.80
2023-02-11T02:24:39.138Z,0.80
2023-02-11T02:27:34.167Z,0.80
2023-02-11T02:30:20.291Z,0.80
2023-02-11T02:33:22.468Z,0.80
2023-02-11T02:36:24.388Z,0.80
2023-02-11T02:39:18.375Z,0.90
2023-02-11T02:41:47.898Z,0.90
2023-02-11T02:44:14.511Z,0.90
2023-02-11T02:46:41.197Z,1.20
2023-02-11T02:49:14.425Z,0.80
2023-02-11T02:52:15.367Z,0.80
2023-02-11T02:55:13.163Z,0.80
2023-02-11T02:57:59.395Z,0.80
2023-02-11T03:00:50.777Z,0.80
2023-02-11T03:03:33.918Z,0.80
2023-02-11T03:06:05.017Z,0.80
2023-02-11T03:08:39.056Z,0.80
2023-02-11T03:11:08.757Z,0.80
2023-02-11T03:13:39.439Z,0.80
2023-02-11T03:16:18.829Z,0.80
2023-02-11T03:18:53.330Z,0.80
2023-02-11T03:21:20.686Z,0.80
2023-02-11T03:23:55.583Z,0.70
2023-02-11T03:26:46.838Z,0.80
2023-02-11T03:29:21.931Z,0.70
2023-02-11T03:32:16.975Z,0.70
2023-02-11T03:35:00.241Z,0.70
2023-02-11T03:37:37.551Z,0.70
2023-02-11T03:40:13.451Z,0.70
2023-02-11T03:42:52.940Z,0.70
2023-02-11T03:45:22.718Z,0.70
2023-02-11T03:47:55.961Z,0.70
2023-02-11T03:50:24.329Z,0.70
2023-02-11T03:52:51.485Z,0.70
2023-02-11T03:55:20.992Z,0.70
2023-02-11T03:57:47.901Z,0.70
2023-02-11T04:00:15.239Z,0.70
2023-02-11T04:02:42.322Z,0.70
2023-02-11T04:05:16.001Z,0.80
2023-02-11T04:07:42.766Z,0.80
2023-02-11T04:10:11.402Z,0.80
2023-02-11T04:12:38.142Z,0.90
2023-02-11T04:15:06.152Z,0.90
2023-02-11T04:17:32.871Z,0.90
2023-02-11T04:19:59.456Z,0.90
2023-02-11T04:22:26.194Z,0.90
2023-02-11T04:24:57.408Z,1.00
2023-02-11T04:27:24.235Z,1.10
2023-02-11T04:29:50.788Z,1.10
2023-02-11T04:32:17.419Z,1.10
2023-02-11T04:34:44.096Z,1.10
2023-02-11T04:37:10.765Z,1.10
2023-02-11T04:39:37.465Z,1.10
2023-02-11T04:42:04.294Z,1.10
2023-02-11T04:44:31.110Z,1.10
2023-02-11T04:47:00.649Z,1.10
2023-02-11T04:49:27.266Z,1.10
2023-02-11T04:51:53.919Z,1.10
2023-02-11T04:54:20.543Z,1.10
2023-02-11T04:56:47.354Z,1.20
2023-02-11T04:59:14.081Z,1.10
2023-02-11T05:01:41.204Z,1.10
2023-02-11T05:04:07.883Z,1.10
2023-02-11T05:06:34.676Z,1.10
2023-02-11T05:09:01.431Z,1.10
2023-02-11T05:11:28.045Z,1.10
2023-02-11T05:13:54.709Z,1.10
2023-02-11T05:16:21.506Z,1.10
2023-02-11T05:18:52.470Z,1.10
2023-02-11T05:21:19.973Z,1.10
2023-02-11T05:23:46.963Z,1.10
2023-02-11T05:26:14.744Z,1.20
2023-02-11T05:28:42.561Z,1.20
2023-02-11T05:31:10.058Z,1.20
2023-02-11T05:33:36.787Z,1.20
2023-02-11T05:36:08.354Z,1.20
2023-02-11T05:38:35.752Z,1.10
2023-02-11T05:41:03.895Z,1.10
2023-02-11T05:43:30.754Z,1.10
2023-02-11T05:45:57.540Z,1.00
2023-02-11T05:48:24.224Z,0.90
2023-02-11T05:50:50.795Z,0.90
2023-02-11T05:53:17.545Z,0.90
2023-02-11T05:55:44.369Z,0.90
2023-02-11T05:58:10.967Z,0.80
2023-02-11T06:00:38.145Z,0.80
2023-02-11T06:03:04.898Z,0.90
2023-02-11T06:05:33.154Z,0.90
2023-02-11T06:08:05.062Z,0.80
2023-02-11T06:10:31.693Z,0.80
2023-02-11T06:12:58.304Z,0.90
2023-02-11T06:15:24.988Z,0.80
2023-02-11T06:17:51.945Z,0.90
2023-02-11T06:20:18.836Z,1.00
2023-02-11T06:22:46.046Z,1.10
2023-02-11T06:25:13.183Z,1.30
2023-02-11T06:27:39.801Z,1.40
2023-02-11T06:30:08.108Z,1.50
2023-02-11T06:32:44.042Z,1.60
2023-02-11T06:35:12.699Z,1.70
2023-02-11T06:37:42.908Z,1.80
2023-02-11T06:40:12.406Z,1.80
2023-02-11T06:42:39.521Z,1.80
2023-02-11T06:45:09.419Z,1.80
2023-02-11T06:47:37.273Z,1.90
2023-02-11T06:50:05.715Z,1.90
2023-02-11T06:52:32.968Z,1.90
2023-02-11T06:54:59.819Z,2.00
2023-02-11T06:57:26.376Z,2.10
2023-02-11T06:59:54.162Z,2.20
2023-02-11T07:02:21.235Z,2.30
2023-02-11T07:04:47.997Z,2.30
2023-02-11T07:07:14.639Z,2.40
2023-02-11T07:09:41.446Z,2.40
2023-02-11T07:12:11.176Z,2.50
2023-02-11T07:14:38.110Z,2.60
2023-02-11T07:17:05.206Z,2.60
2023-02-11T07:19:31.922Z,2.70
2023-02-11T07:21:58.562Z,2.80
2023-02-11T07:24:25.231Z,2.90
2023-02-11T07:26:53.844Z,3.00
2023-02-11T07:29:20.514Z,3.10
2023-02-11T07:31:50.351Z,3.20
2023-02-11T07:34:17.115Z,3.40
2023-02-11T07:36:44.945Z,3.60
2023-02-11T07:39:11.545Z,3.80
2023-02-11T07:41:38.833Z,3.90
2023-02-11T07:44:07.258Z,4.00
2023-02-11T07:46:45.166Z,4.20
2023-02-11T07:49:21.788Z,4.30
2023-02-11T07:51:58.389Z,4.50
2023-02-11T07:54:35.208Z,4.60
2023-02-11T07:57:06.001Z,4.60
2023-02-11T07:59:37.372Z,4.70
2023-02-11T08:02:09.415Z,4.80
2023-02-11T08:04:38.884Z,4.70
2023-02-11T08:07:10.765Z,4.70
2023-02-11T08:09:38.489Z,4.60
2023-02-11T08:12:07.893Z,4.70
2023-02-11T08:14:40.449Z,4.60
2023-02-11T08:17:12.676Z,4.60
2023-02-11T08:19:49.256Z,4.50
2023-02-11T08:22:15.979Z,4.40
2023-02-11T08:24:42.846Z,4.40
2023-02-11T08:27:14.596Z,4.30
2023-02-11T08:29:41.494Z,4.30
2023-02-11T08:32:08.178Z,4.30
2023-02-11T08:34:35.010Z,4.20
2023-02-11T08:37:01.878Z,4.10
2023-02-11T08:39:38.589Z,3.90
2023-02-11T08:42:05.270Z,3.80
2023-02-11T08:44:31.830Z,3.80
2023-02-11T08:46:58.504Z,3.80
2023-02-11T08:49:25.198Z,3.80
2023-02-11T08:51:51.932Z,3.80
2023-02-11T08:54:18.885Z,3.70
2023-02-11T08:56:45.521Z,3.80
2023-02-11T08:59:15.295Z,3.80
2023-02-11T09:01:42.033Z,3.80
2023-02-11T09:04:10.254Z,4.00
2023-02-11T09:06:36.847Z,4.00
2023-02-11T09:09:03.546Z,4.10
2023-02-11T09:11:35.500Z,4.20
2023-02-11T09:14:03.993Z,4.30
2023-02-11T09:16:34.583Z,4.40
2023-02-11T09:19:03.666Z,4.50
2023-02-11T09:21:30.921Z,4.50
2023-02-11T09:23:57.676Z,4.60
2023-02-11T09:26:30.795Z,4.60
2023-02-11T09:28:58.178Z,4.60
2023-02-11T09:31:28.254Z,4.70
2023-02-11T09:34:01.905Z,4.80
2023-02-11T09:36:33.639Z,4.90
2023-02-11T09:39:02.104Z,5.00
2023-02-11T09:42:12.502Z,5.10
2023-02-11T09:44:39.577Z,5.20
2023-02-11T09:47:32.235Z,5.10
2023-02-11T09:50:18.460Z,5.10
2023-02-11T09:53:00.317Z,5.20
2023-02-11T09:55:37.897Z,5.30
2023-02-11T09:58:13.006Z,5.40
2023-02-11T10:01:26.244Z,5.50
2023-02-11T10:04:41.356Z,5.50
2023-02-11T10:07:22.960Z,5.60
2023-02-11T10:10:22.065Z,5.70
2023-02-11T10:13:09.176Z,5.80
2023-02-11T10:16:14.755Z,5.80
2023-02-11T10:19:07.127Z,5.80
2023-02-11T10:22:09.482Z,5.70
2023-02-11T10:24:37.385Z,5.80
2023-02-11T10:27:19.514Z,5.80
2023-02-11T10:30:02.684Z,5.80
2023-02-11T10:32:43.234Z,5.80
2023-02-11T10:35:22.180Z,5.80
2023-02-11T10:37:49.473Z,5.90
2023-02-11T10:40:23.681Z,5.90
2023-02-11T10:42:59.941Z,5.90
2023-02-11T10:45:38.741Z,5.80
2023-02-11T10:48:39.704Z,5.90
2023-02-11T10:51:26.673Z,5.80
2023-02-11T10:54:07.824Z,5.80
2023-02-11T10:56:38.097Z,5.80
2023-02-11T10:59:27.327Z,5.90
2023-02-11T11:02:05.840Z,6.00
2023-02-11T11:04:45.128Z,6.00
2023-02-11T11:07:21.523Z,6.10
2023-02-11T11:10:15.801Z,6.00
2023-02-11T11:12:45.123Z,6.00
2023-02-11T11:15:27.046Z,6.10
2023-02-11T11:18:22.831Z,6.20
2023-02-11T11:21:05.698Z,6.20
2023-02-11T11:23:34.841Z,6.10
2023-02-11T11:26:10.441Z,6.00
2023-02-11T11:28:53.587Z,6.00
2023-02-11T11:31:54.909Z,5.90
2023-02-11T11:34:30.532Z,5.90
2023-02-11T11:36:59.582Z,5.80
2023-02-11T11:39:32.965Z,5.80
2023-02-11T11:42:05.217Z,5.80
2023-02-11T11:44:37.666Z,5.90
2023-02-11T11:47:24.918Z,6.00
2023-02-11T11:50:09.566Z,6.10
2023-02-11T11:52:59.999Z,6.00
2023-02-11T11:55:35.895Z,6.00
2023-02-11T11:58:02.622Z,6.10
2023-02-11T12:00:58.943Z,6.10
2023-02-11T12:03:46.494Z,6.00
2023-02-11T12:06:23.934Z,6.00
2023-02-11T12:09:12.882Z,6.00
2023-02-11T12:12:17.112Z,6.00
2023-02-11T12:14:56.016Z,5.90
2023-02-11T12:18:01.170Z,5.90
2023-02-11T12:21:29.340Z,5.90
2023-02-11T12:24:31.561Z,5.90
2023-02-11T12:27:06.457Z,5.90
2023-02-11T12:30:18.718Z,5.90
2023-02-11T12:33:19.679Z,6.00
2023-02-11T12:35:58.208Z,6.00
2023-02-11T12:38:54.184Z,6.00
2023-02-11T12:42:02.064Z,5.90
2023-02-11T12:45:18.494Z,6.00
2023-02-11T12:48:17.621Z,6.00
2023-02-11T12:51:00.480Z,6.00
2023-02-11T12:54:09.289Z,6.00
2023-02-11T12:57:17.512Z,6.00
2023-02-11T13:00:19.065Z,6.00
2023-02-11T13:02:45.714Z,6.00
2023-02-11T13:05:23.475Z,6.00
2023-02-11T13:07:54.283Z,6.10
2023-02-11T13:10:26.804Z,6.20
2023-02-11T13:13:14.080Z,6.20
2023-02-11T13:15:44.107Z,6.20
2023-02-11T13:18:44.768Z,6.20
2023-02-11T13:21:50.192Z,6.20
2023-02-11T13:24:47.868Z,6.10
2023-02-11T13:27:40.509Z,6.20
2023-02-11T13:30:32.314Z,6.20
2023-02-11T13:33:00.778Z,6.30
2023-02-11T13:35:30.332Z,6.40
2023-02-11T13:37:59.930Z,6.40
2023-02-11T13:40:31.036Z,6.40
2023-02-11T13:43:01.944Z,6.50
2023-02-11T13:45:35.684Z,6.50
2023-02-11T13:48:08.200Z,6.50
2023-02-11T13:50:47.798Z,6.40
2023-02-11T13:53:18.296Z,6.30
2023-02-11T13:55:54.579Z,6.30
2023-02-11T13:58:27.142Z,6.30
2023-02-11T14:00:54.487Z,6.30
2023-02-11T14:03:47.600Z,6.20
2023-02-11T14:06:40.552Z,6.20
2023-02-11T14:09:10.286Z,6.20
2023-02-11T14:11:44.576Z,6.20
2023-02-11T14:14:31.797Z,6.20
2023-02-11T14:16:58.637Z,6.20
2023-02-11T14:19:38.140Z,6.20
2023-02-11T14:22:27.955Z,6.20
2023-02-11T14:25:00.802Z,6.10
2023-02-11T14:27:43.741Z,6.20
2023-02-11T14:30:16.453Z,6.20
2023-02-11T14:33:27.253Z,6.20
2023-02-11T14:36:20.034Z,6.20
2023-02-11T14:38:56.290Z,6.30
2023-02-11T14:41:29.646Z,6.30
2023-02-11T14:44:04.880Z,6.30
2023-02-11T14:46:33.529Z,6.20
2023-02-11T14:49:05.106Z,6.30
2023-02-11T14:51:40.213Z,6.30
2023-02-11T14:54:25.068Z,6.20
2023-02-11T14:57:20.711Z,6.20
2023-02-11T15:00:05.586Z,6.10
2023-02-11T15:02:38.200Z,6.10
2023-02-11T15:05:26.039Z,6.10
2023-02-11T15:07:59.853Z,6.10
2023-02-11T15:10:41.740Z,6.10
2023-02-11T15:13:17.606Z,6.20
2023-02-11T15:15:46.595Z,6.10
2023-02-11T15:18:22.576Z,6.10
2023-02-11T15:20:50.512Z,6.10
2023-02-11T15:23:27.188Z,6.00
2023-02-11T15:25:56.188Z,6.10
2023-02-11T15:28:29.808Z,6.00
2023-02-11T15:31:02.854Z,5.90
2023-02-11T15:33:30.965Z,5.90
2023-02-11T15:36:01.972Z,5.90
2023-02-11T15:38:30.425Z,5.90
2023-02-11T15:41:02.376Z,5.90
2023-02-11T15:43:49.144Z,5.90
2023-02-11T15:46:19.786Z,5.90
2023-02-11T15:48:54.766Z,5.90
2023-02-11T15:51:32.782Z,5.80
2023-02-11T15:54:02.749Z,5.80
2023-02-11T15:56:44.819Z,5.80
2023-02-11T15:59:30.926Z,5.80
2023-02-11T16:02:09.694Z,5.70
2023-02-11T16:04:37.074Z,5.70
2023-02-11T16:07:05.012Z,5.70
2023-02-11T16:09:36.358Z,5.70
2023-02-11T16:12:23.684Z,5.60
2023-02-11T16:14:50.262Z,5.60
2023-02-11T16:17:26.047Z,5.60
2023-02-11T16:19:54.188Z,5.50
2023-02-11T16:22:35.140Z,5.50
2023-02-11T16:25:02.201Z,5.50
2023-02-11T16:27:40.734Z,5.50
2023-02-11T16:30:33.226Z,5.50
2023-02-11T16:32:59.995Z,5.40
2023-02-11T16:35:26.620Z,5.40
2023-02-11T16:37:54.738Z,5.40
2023-02-11T16:40:23.004Z,5.40
2023-02-11T16:42:50.633Z,5.40
2023-02-11T16:45:17.251Z,5.40
2023-02-11T16:47:43.948Z,5.30
2023-02-11T16:50:21.601Z,5.30
2023-02-11T16:52:48.865Z,5.30
2023-02-11T16:55:15.696Z,5.30
2023-02-11T16:57:42.268Z,5.30
2023-02-11T17:00:10.246Z,5.30
2023-02-11T17:02:37.935Z,5.30
2023-02-11T17:05:08.197Z,5.30
2023-02-11T17:07:35.238Z,5.30
2023-02-11T17:10:02.005Z,5.30
2023-02-11T17:12:28.733Z,5.20
2023-02-11T17:14:55.393Z,5.30
2023-02-11T17:17:23.552Z,5.20
2023-02-11T17:19:51.000Z,5.20
2023-02-11T17:22:20.092Z,5.20
2023-02-11T17:24:46.673Z,5.20
2023-02-11T17:27:13.841Z,5.20
2023-02-11T17:29:40.503Z,5.20
2023-02-11T17:32:14.902Z,5.20
2023-02-11T17:34:41.577Z,5.30
2023-02-11T17:37:11.095Z,5.20
2023-02-11T17:39:39.254Z,5.20
2023-02-11T17:42:06.743Z,5.20
2023-02-11T17:44:33.868Z,5.20
2023-02-11T17:47:00.508Z,5.20
2023-02-11T17:49:27.420Z,5.20
2023-02-11T17:51:54.080Z,5.10
2023-02-11T17:54:21.045Z,5.20
2023-02-11T17:56:50.636Z,5.20
2023-02-11T17:59:17.623Z,5.20
2023-02-11T18:01:46.520Z,5.20
2023-02-11T18:04:17.620Z,5.20
2023-02-11T18:06:50.195Z,5.20
2023-02-11T18:09:16.803Z,5.20
2023-02-11T18:11:44.816Z,5.00
2023-02-11T18:14:14.173Z,5.20
2023-02-11T18:16:43.417Z,5.10
2023-02-11T18:19:11.333Z,5.10
2023-02-11T18:21:37.972Z,5.10
2023-02-11T18:24:07.038Z,5.10
2023-02-11T18:26:34.718Z,5.10
2023-02-11T18:29:01.401Z,5.10
2023-02-11T18:31:28.221Z,5.10
2023-02-11T18:33:54.987Z,5.10
2023-02-11T18:36:22.857Z,5.10
2023-02-11T18:38:49.545Z,5.10
2023-02-11T18:41:16.155Z,5.10
2023-02-11T18:43:42.975Z,5.10
2023-02-11T18:46:14.339Z,5.10
2023-02-11T18:48:41.644Z,5.00
2023-02-11T18:51:18.638Z,5.00
2023-02-11T18:53:45.925Z,5.00
2023-02-11T18:56:18.844Z,5.00
2023-02-11T18:58:45.817Z,5.00
2023-02-11T19:01:20.784Z,5.00
2023-02-11T19:03:48.203Z,5.10
2023-02-11T19:06:25.263Z,5.00
2023-02-11T19:08:59.905Z,5.10
2023-02-11T19:11:46.782Z,5.10
2023-02-11T19:14:22.342Z,5.10
2023-02-11T19:16:52.591Z,5.10
2023-02-11T19:19:20.558Z,5.10
2023-02-11T19:21:48.811Z,5.10
2023-02-11T19:24:18.841Z,5.00
2023-02-11T19:26:47.536Z,5.10
2023-02-11T19:29:14.944Z,5.10
2023-02-11T19:31:43.291Z,5.00
2023-02-11T19:34:12.060Z,5.10
2023-02-11T19:36:38.678Z,5.10
2023-02-11T19:39:07.067Z,5.00
2023-02-11T19:41:34.388Z,5.00
2023-02-11T19:44:02.412Z,5.00
2023-02-11T19:46:34.606Z,5.00
2023-02-11T19:49:02.054Z,5.00
2023-02-11T19:51:30.101Z,5.00
2023-02-11T19:53:59.157Z,5.00
2023-02-11T19:56:28.442Z,5.00
2023-02-11T19:58:55.521Z,5.00
2023-02-11T20:01:25.013Z,4.90
2023-02-11T20:03:54.472Z,4.90
2023-02-11T20:06:31.792Z,4.90
2023-02-11T20:09:03.419Z,4.80
2023-02-11T20:11:31.362Z,4.90
2023-02-11T20:14:01.073Z,5.00
2023-02-11T20:16:46.973Z,4.90
2023-02-11T20:19:21.872Z,4.90
2023-02-11T20:21:52.648Z,5.00
2023-02-11T20:24:20.498Z,4.90
2023-02-11T20:26:48.334Z,4.90
2023-02-11T20:29:17.384Z,5.00
2023-02-11T20:31:44.418Z,5.00
2023-02-11T20:34:12.181Z,5.00
2023-02-11T20:36:40.365Z,4.90
2023-02-11T20:39:08.089Z,4.90
2023-02-11T20:41:39.581Z,4.90
2023-02-11T20:44:09.794Z,4.90
2023-02-11T20:46:40.590Z,4.80
2023-02-11T20:49:09.960Z,4.90
2023-02-11T20:51:37.203Z,4.80
2023-02-11T20:54:05.954Z,4.80
2023-02-11T20:56:36.631Z,4.80
2023-02-11T20:59:05.111Z,4.70
2023-02-11T21:01:35.574Z,4.60
2023-02-11T21:04:10.366Z,4.50
2023-02-11T21:06:42.781Z,4.40
2023-02-11T21:09:13.799Z,4.30
2023-02-11T21:11:41.519Z,4.20
2023-02-11T21:14:09.754Z,4.10
2023-02-11T21:16:36.460Z,4.00
2023-02-11T21:19:03.880Z,3.90
2023-02-11T21:21:31.356Z,3.90
2023-02-11T21:23:58.580Z,3.90
2023-02-11T21:26:25.905Z,3.90
2023-02-11T21:28:52.884Z,4.00
2023-02-11T21:31:23.851Z,4.00
2023-02-11T21:33:50.984Z,3.90
2023-02-11T21:36:18.181Z,3.90
2023-02-11T21:38:45.108Z,3.90
2023-02-11T21:41:12.264Z,3.90
2023-02-11T21:43:38.858Z,3.90
2023-02-11T21:46:11.176Z,3.90
2023-02-11T21:48:38.206Z,3.80
2023-02-11T21:51:19.437Z,3.80
2023-02-11T21:53:46.827Z,3.80
2023-02-11T21:56:17.594Z,3.80
2023-02-11T21:58:45.564Z,3.80
2023-02-11T22:01:19.299Z,3.80
2023-02-11T22:03:46.835Z,3.90
2023-02-11T22:06:27.086Z,3.90
2023-02-11T22:08:54.722Z,3.90
2023-02-11T22:11:21.826Z,3.90
2023-02-11T22:13:52.952Z,4.00
2023-02-11T22:16:19.602Z,4.00
2023-02-11T22:18:46.410Z,4.00
2023-02-11T22:21:20.317Z,4.10
2023-02-11T22:23:46.966Z,4.00
2023-02-11T22:26:17.792Z,4.10
2023-02-11T22:28:45.366Z,4.00
2023-02-11T22:31:18.947Z,4.10
2023-02-11T22:33:45.917Z,4.00
2023-02-11T22:36:23.650Z,4.00
2023-02-11T22:38:50.935Z,4.00
2023-02-11T22:41:18.256Z,4.00
2023-02-11T22:43:45.476Z,4.00
2023-02-11T22:46:16.127Z,4.00
2023-02-11T22:48:43.234Z,4.00
2023-02-11T22:51:21.031Z,4.10
2023-02-11T22:54:06.198Z,4.10
2023-02-11T22:56:34.922Z,4.10
2023-02-11T22:59:05.541Z,4.20
2023-02-11T23:01:32.432Z,4.20
2023-02-11T23:04:01.946Z,4.20
2023-02-11T23:06:28.698Z,4.20
2023-02-11T23:08:55.501Z,4.20
2023-02-11T23:11:29.132Z,4.30
2023-02-11T23:13:57.003Z,4.30
2023-02-11T23:16:28.057Z,4.30
2023-02-11T23:18:55.287Z,4.30
2023-02-11T23:21:27.835Z,4.40
2023-02-11T23:23:58.693Z,4.40
2023-02-11T23:26:25.789Z,4.40
2023-02-11T23:28:52.962Z,4.40
2023-02-11T23:31:27.085Z,4.30
2023-02-11T23:33:53.952Z,4.40
2023-02-11T23:36:21.802Z,4.30
2023-02-11T23:38:52.060Z,4.40
2023-02-11T23:41:20.053Z,4.30
2023-02-11T23:43:55.645Z,4.30
2023-02-11T23:46:23.974Z,4.30
2023-02-11T23:48:52.155Z,4.30
2023-02-11T23:51:19.924Z,4.30
2023-02-11T23:53:49.127Z,4.20
2023-02-11T23:56:19.872Z,4.30
2023-02-11T23:58:51.468Z,4.30
